KDRI/DRI METAR and TAF weather

Enter ICAO airport designator
Station Type Date Time Source
KDRI METAR 2019/04/21 22:55 UTC NOAA

KDRI 212255Z AUTO 17011G15KT 10SM CLR 25/06 A3009 RMK AO2 T02500062


Station Type Date Time Source
KDRI Decoded METAR 2019/04/21 22:55 UTC NOAA

De Ridder, Beauregard Parish Airport, LA, United States (KDRI) 30-49-54N 093-20-23W
Apr 21, 2019 - 06:55 PM EDT / 2019.04.21 2255 UTC
Wind: from the S (170 degrees) at 13 MPH (11 KT) gusting to 17 MPH (15 KT):0
Visibility: 10 mile(s):0
Sky conditions: clear
Temperature: 77.0 F (25.0 C)
Dew Point: 43.2 F (6.2 C)
Relative Humidity: 29%
Pressure (altimeter): 30.09 in. Hg (1018 hPa)
ob: KDRI 212255Z AUTO 17011G15KT 10SM CLR 25/06 A3009 RMK AO2 T02500062
cycle: 23

Station Type Date Time Source
KDRI TAF UTC NOAA

Error!

Example: see airport list